Time;durP1;ratioP1;P1;durP2;ratioP2;P2;SDS_P1;SDS_P2;PMS_P1;PMS_P2;Temp;Humidity;BMP_temperature;BMP_pressure;BME280_temperature;BME280_humidity;BME280_pressure;Samples;Min_cycle;Max_cycle;Signal;HPM_P1;HPM_P2
2023/08/27 00:00:43;;;;;;;2.08;1.15;;;11.70;99.90;;;;;;5105647;28;20161;-75
2023/08/27 00:03:09;;;;;;;0.80;0.40;;;11.80;99.90;;;;;;5100284;28;20028;-74
2023/08/27 00:05:42;;;;;;;0.75;0.70;;;11.70;99.90;;;;;;5114223;28;20048;-74
2023/08/27 00:08:07;;;;;;;0.55;0.38;;;11.70;99.90;;;;;;5102806;28;20044;-74
2023/08/27 00:10:33;;;;;;;0.80;0.52;;;11.80;99.90;;;;;;5100227;28;20052;-74
2023/08/27 00:12:58;;;;;;;0.52;0.50;;;11.80;99.90;;;;;;5097447;28;20093;-74
2023/08/27 00:15:24;;;;;;;0.20;0.20;;;11.80;99.90;;;;;;5105259;28;20109;-74
2023/08/27 00:17:50;;;;;;;0.17;0.17;;;11.90;99.90;;;;;;5106832;28;20105;-74
2023/08/27 00:20:16;;;;;;;0.57;0.57;;;11.80;99.90;;;;;;5105826;27;20052;-74
2023/08/27 00:22:41;;;;;;;0.73;0.35;;;11.90;99.90;;;;;;5106826;28;20040;-74
2023/08/27 00:25:07;;;;;;;0.55;0.47;;;11.70;99.90;;;;;;5105517;28;20036;-74
2023/08/27 00:27:35;;;;;;;0.70;0.60;;;11.70;99.90;;;;;;5111632;28;20390;-74
2023/08/27 00:30:04;;;;;;;2.75;1.23;;;11.80;99.90;;;;;;5106301;28;20482;-74
2023/08/27 00:32:33;;;;;;;0.32;0.32;;;11.80;99.90;;;;;;5105012;28;20070;-74
2023/08/27 00:35:03;;;;;;;0.32;0.32;;;11.80;99.90;;;;;;5113064;28;20364;-74
2023/08/27 00:37:29;;;;;;;0.73;0.60;;;11.80;99.90;;;;;;5100663;28;20085;-74
2023/08/27 00:39:55;;;;;;;0.65;0.65;;;11.70;99.90;;;;;;5100443;28;20437;-74
2023/08/27 00:42:21;;;;;;;0.98;0.63;;;11.60;99.90;;;;;;5109996;28;20040;-74
2023/08/27 00:44:47;;;;;;;1.27;0.73;;;11.60;99.90;;;;;;5104727;28;20467;-75
2023/08/27 00:47:13;;;;;;;0.13;0.10;;;11.60;99.90;;;;;;5107059;28;20038;-74
2023/08/27 00:49:39;;;;;;;12.57;1.08;;;11.60;99.90;;;;;;5104992;28;20055;-74
2023/08/27 00:52:07;;;;;;;0.38;0.35;;;11.60;99.90;;;;;;5090995;28;20059;-74
2023/08/27 00:54:33;;;;;;;0.10;0.10;;;11.60;99.90;;;;;;5105658;28;20436;-74
2023/08/27 00:56:59;;;;;;;1.70;1.15;;;11.60;99.90;;;;;;5111143;28;20043;-74
2023/08/27 00:59:25;;;;;;;1.40;1.05;;;11.60;99.90;;;;;;5098304;28;20051;-75
2023/08/27 01:01:52;;;;;;;0.10;0.10;;;11.60;99.90;;;;;;5104742;28;20028;-74
2023/08/27 01:04:17;;;;;;;0.00;0.00;;;11.60;99.90;;;;;;5098047;28;20458;-74
2023/08/27 01:06:43;;;;;;;0.30;0.30;;;11.60;99.90;;;;;;5090482;28;20106;-74
2023/08/27 01:09:22;;;;;;;0.88;0.80;;;11.70;99.90;;;;;;5087263;28;20027;-74
2023/08/27 01:12:19;;;;;;;3.05;0.35;;;11.60;99.90;;;;;;5104410;28;20123;-74
2023/08/27 01:14:48;;;;;;;0.55;0.25;;;11.50;99.90;;;;;;5104384;28;20048;-74
2023/08/27 01:17:18;;;;;;;0.10;0.10;;;11.50;99.90;;;;;;5107282;28;20039;-74
2023/08/27 01:19:44;;;;;;;0.10;0.10;;;11.50;99.90;;;;;;5106683;28;20070;-74
2023/08/27 01:22:10;;;;;;;0.22;0.22;;;11.50;99.90;;;;;;5100348;28;20035;-74
2023/08/27 01:24:35;;;;;;;0.35;0.30;;;11.50;99.90;;;;;;5105270;28;20113;-74
2023/08/27 01:27:04;;;;;;;0.73;0.63;;;11.50;99.90;;;;;;5111999;28;20387;-74
2023/08/27 01:29:36;;;;;;;0.45;0.38;;;11.50;99.90;;;;;;5109989;28;20126;-74
2023/08/27 01:32:10;;;;;;;0.50;0.47;;;11.60;99.90;;;;;;5105588;28;20044;-75
2023/08/27 01:34:37;;;;;;;0.10;0.10;;;11.70;99.90;;;;;;5100844;28;20371;-74
2023/08/27 01:37:03;;;;;;;1.15;1.02;;;11.90;99.90;;;;;;5092766;28;20541;-74
2023/08/27 01:39:29;;;;;;;0.70;0.43;;;11.90;99.90;;;;;;5095720;28;20498;-74
2023/08/27 01:41:55;;;;;;;0.70;0.60;;;12.00;99.90;;;;;;5104259;28;20036;-74
2023/08/27 01:44:20;;;;;;;0.20;0.20;;;12.10;99.90;;;;;;5105993;28;20043;-74
2023/08/27 01:46:46;;;;;;;3.70;0.28;;;12.00;99.90;;;;;;5111786;28;20027;-74
2023/08/27 01:49:12;;;;;;;0.32;0.32;;;12.10;99.90;;;;;;5105738;28;20402;-74
2023/08/27 01:51:37;;;;;;;1.55;1.30;;;12.10;99.90;;;;;;5101677;28;20039;-74
2023/08/27 01:54:05;;;;;;;1.88;1.48;;;12.20;99.90;;;;;;5098855;28;20113;-74
2023/08/27 01:56:30;;;;;;;0.10;0.10;;;12.20;99.90;;;;;;5098268;28;20134;-74
2023/08/27 01:58:56;;;;;;;3.63;1.17;;;12.10;99.90;;;;;;5106607;28;20048;-75
2023/08/27 02:01:21;;;;;;;0.10;0.10;;;12.00;99.90;;;;;;5106346;28;20048;-74
2023/08/27 02:03:47;;;;;;;0.03;0.03;;;12.00;99.90;;;;;;5097739;28;20031;-74
2023/08/27 02:06:13;;;;;;;0.13;0.10;;;11.90;99.90;;;;;;5108307;28;20047;-74
2023/08/27 02:08:38;;;;;;;1.55;0.43;;;11.90;99.90;;;;;;5104768;28;20407;-74
2023/08/27 02:11:04;;;;;;;0.15;0.15;;;11.80;99.90;;;;;;5105992;28;20110;-74
2023/08/27 02:13:29;;;;;;;0.52;0.38;;;11.80;99.90;;;;;;5099183;28;20047;-74
2023/08/27 02:15:55;;;;;;;0.88;0.40;;;11.80;99.90;;;;;;5098289;28;20406;-74
2023/08/27 02:18:21;;;;;;;0.40;0.40;;;11.80;99.90;;;;;;5097366;28;20482;-74
2023/08/27 02:20:46;;;;;;;0.10;0.10;;;11.80;99.90;;;;;;5103982;28;20040;-74
2023/08/27 02:23:12;;;;;;;0.70;0.70;;;11.80;99.90;;;;;;5089593;28;20083;-74
2023/08/27 02:25:37;;;;;;;0.10;0.10;;;11.80;99.90;;;;;;5089265;28;20044;-73
2023/08/27 02:28:04;;;;;;;0.30;0.30;;;11.70;99.90;;;;;;5081759;28;20486;-74
2023/08/27 02:30:29;;;;;;;1.30;1.02;;;11.60;99.90;;;;;;5106035;28;20044;-74
2023/08/27 02:32:55;;;;;;;0.35;0.25;;;11.60;99.90;;;;;;5097588;28;20439;-74
2023/08/27 02:35:20;;;;;;;0.20;0.20;;;11.40;99.90;;;;;;5106249;28;20046;-74
2023/08/27 02:37:46;;;;;;;0.30;0.30;;;11.30;99.90;;;;;;5089605;28;20102;-74
2023/08/27 02:40:13;;;;;;;1.77;0.52;;;11.20;99.90;;;;;;5103240;28;20071;-74
2023/08/27 02:42:39;;;;;;;0.00;0.00;;;11.20;99.90;;;;;;5105841;28;20039;-74
2023/08/27 02:45:05;;;;;;;0.57;0.45;;;11.50;99.90;;;;;;5097174;28;20043;-74
2023/08/27 02:47:31;;;;;;;0.22;0.22;;;11.00;99.90;;;;;;5102136;28;20043;-74
2023/08/27 02:49:57;;;;;;;0.03;0.03;;;11.00;99.90;;;;;;5102318;28;20115;-74
2023/08/27 02:52:22;;;;;;;0.50;0.38;;;11.10;99.90;;;;;;5102826;28;20040;-74
2023/08/27 02:54:48;;;;;;;0.35;0.35;;;11.10;99.90;;;;;;5105795;28;20108;-74
2023/08/27 02:57:14;;;;;;;0.40;0.40;;;11.10;99.90;;;;;;5103361;28;20063;-74
2023/08/27 02:59:39;;;;;;;0.80;0.75;;;11.10;99.90;;;;;;5102365;28;20028;-74
2023/08/27 03:02:05;;;;;;;0.03;0.03;;;11.20;99.90;;;;;;5102041;28;20478;-74
2023/08/27 03:04:31;;;;;;;0.00;0.00;;;11.20;99.90;;;;;;5101389;28;20047;-74
2023/08/27 03:06:56;;;;;;;2.13;0.82;;;11.20;99.90;;;;;;5105310;28;20048;-74
2023/08/27 03:09:22;;;;;;;0.20;0.20;;;11.20;99.90;;;;;;5114375;28;20051;-74
2023/08/27 03:11:47;;;;;;;1.02;0.73;;;11.30;99.90;;;;;;5102932;28;20052;-74
2023/08/27 03:14:13;;;;;;;0.03;0.03;;;11.30;99.90;;;;;;5095890;28;20036;-74
2023/08/27 03:16:40;;;;;;;1.10;0.55;;;11.20;99.90;;;;;;5099093;28;20127;-74
2023/08/27 03:19:05;;;;;;;0.55;0.52;;;11.20;99.90;;;;;;5097391;28;20044;-75
2023/08/27 03:21:31;;;;;;;0.25;0.25;;;11.20;99.90;;;;;;5107041;28;20464;-74
2023/08/27 03:23:57;;;;;;;0.63;0.63;;;11.30;99.90;;;;;;5105823;28;20051;-74
2023/08/27 03:26:22;;;;;;;0.43;0.40;;;11.30;99.90;;;;;;5088169;28;20072;-74
2023/08/27 03:28:48;;;;;;;1.15;0.95;;;11.30;99.90;;;;;;5098799;28;20044;-74
2023/08/27 03:31:14;;;;;;;0.63;0.52;;;11.30;99.90;;;;;;5110786;28;20390;-74
2023/08/27 03:33:40;;;;;;;1.70;1.05;;;11.40;99.90;;;;;;5084095;28;20041;-74
2023/08/27 03:36:07;;;;;;;0.22;0.20;;;11.50;99.90;;;;;;5097149;28;20085;-74
2023/08/27 03:38:32;;;;;;;1.20;0.35;;;11.50;99.90;;;;;;5105451;28;20042;-74
2023/08/27 03:40:58;;;;;;;1.02;0.90;;;11.70;99.90;;;;;;5103754;28;20031;-74
2023/08/27 03:43:24;;;;;;;2.08;1.92;;;11.70;99.90;;;;;;5091441;28;20036;-74
2023/08/27 03:45:49;;;;;;;0.88;0.70;;;11.80;99.90;;;;;;5105068;28;20036;-74
2023/08/27 03:48:15;;;;;;;0.50;0.50;;;11.80;99.90;;;;;;5104056;28;20043;-75
2023/08/27 03:50:40;;;;;;;0.30;0.30;;;11.90;99.90;;;;;;5102071;28;20379;-74
2023/08/27 03:53:06;;;;;;;0.25;0.25;;;11.90;99.90;;;;;;5090385;28;20041;-74
2023/08/27 03:55:41;;;;;;;3.97;1.52;;;12.00;99.90;;;;;;5103204;28;20526;-74
2023/08/27 03:58:08;;;;;;;0.00;0.00;;;12.00;99.90;;;;;;5102255;28;20044;-74
2023/08/27 04:00:34;;;;;;;2.75;0.80;;;12.20;99.90;;;;;;5101646;28;20402;-74
2023/08/27 04:03:04;;;;;;;0.93;0.82;;;12.20;99.90;;;;;;5101906;28;20036;-74
2023/08/27 04:05:30;;;;;;;1.55;1.02;;;12.20;99.90;;;;;;5094127;28;20079;-75
2023/08/27 04:07:56;;;;;;;1.55;1.45;;;12.20;99.90;;;;;;5105306;28;20074;-75
2023/08/27 04:10:22;;;;;;;0.70;0.70;;;12.20;99.90;;;;;;5107420;28;20043;-74
2023/08/27 04:12:47;;;;;;;0.52;0.52;;;12.10;99.90;;;;;;5105663;28;20037;-74
2023/08/27 04:15:13;;;;;;;1.02;0.95;;;12.10;99.90;;;;;;5109386;28;20066;-74
2023/08/27 04:17:38;;;;;;;0.55;0.55;;;12.10;99.90;;;;;;5113821;28;20501;-74
2023/08/27 04:20:04;;;;;;;0.45;0.40;;;12.00;99.90;;;;;;5082834;28;20084;-75
2023/08/27 04:22:30;;;;;;;0.38;0.38;;;12.10;99.90;;;;;;5106912;28;20039;-74
2023/08/27 04:24:55;;;;;;;0.63;0.60;;;12.00;99.90;;;;;;5103389;28;20471;-75
2023/08/27 04:27:21;;;;;;;5.57;2.72;;;12.00;99.90;;;;;;5105434;28;20048;-74
2023/08/27 04:29:47;;;;;;;0.40;0.40;;;12.20;99.90;;;;;;5105401;28;20440;-74
2023/08/27 04:32:12;;;;;;;0.30;0.20;;;11.90;99.90;;;;;;5091772;28;20124;-74
2023/08/27 04:34:38;;;;;;;0.60;0.60;;;11.90;99.90;;;;;;5107389;28;20063;-74
2023/08/27 04:37:03;;;;;;;1.75;1.02;;;11.70;99.90;;;;;;5105524;28;20406;-74
2023/08/27 04:39:30;;;;;;;1.40;1.17;;;11.70;99.90;;;;;;5108090;28;20044;-74
2023/08/27 04:41:59;;;;;;;0.25;0.25;;;11.60;99.90;;;;;;5108069;28;20043;-74
2023/08/27 04:44:26;;;;;;;2.15;0.70;;;11.50;99.90;;;;;;5089385;28;20051;-74
2023/08/27 04:46:52;;;;;;;0.30;0.30;;;11.60;99.90;;;;;;5108154;28;20069;-75
2023/08/27 04:49:18;;;;;;;0.43;0.40;;;11.60;99.90;;;;;;5106754;28;20453;-74
2023/08/27 04:51:44;;;;;;;8.20;0.80;;;11.60;99.90;;;;;;5100648;28;20424;-75
2023/08/27 04:54:10;;;;;;;0.95;0.55;;;11.60;99.90;;;;;;5102505;28;20039;-75
2023/08/27 04:56:35;;;;;;;1.17;0.75;;;11.60;99.90;;;;;;5104801;28;20500;-75
2023/08/27 04:59:01;;;;;;;0.32;0.32;;;11.60;99.90;;;;;;5104421;28;20043;-74
2023/08/27 05:01:27;;;;;;;0.00;0.00;;;11.50;99.90;;;;;;5113268;28;20119;-74
2023/08/27 05:03:52;;;;;;;0.20;0.20;;;11.50;99.90;;;;;;5094374;28;20044;-74
2023/08/27 05:06:18;;;;;;;0.63;0.50;;;11.40;99.90;;;;;;5107624;28;20051;-75
2023/08/27 05:08:43;;;;;;;0.57;0.57;;;11.50;99.90;;;;;;5105369;28;20051;-75
2023/08/27 05:11:09;;;;;;;0.20;0.20;;;11.50;99.90;;;;;;5104587;28;20459;-74
2023/08/27 05:13:34;;;;;;;0.03;0.03;;;11.60;99.90;;;;;;5109437;28;20100;-75
2023/08/27 05:16:00;;;;;;;0.35;0.35;;;11.60;99.90;;;;;;5092725;28;20072;-74
2023/08/27 05:18:26;;;;;;;0.20;0.20;;;11.70;99.90;;;;;;5089158;28;20375;-74
2023/08/27 05:20:51;;;;;;;0.65;0.60;;;11.80;99.90;;;;;;5105938;28;20492;-74
2023/08/27 05:23:17;;;;;;;0.68;0.63;;;11.80;99.90;;;;;;5099342;28;20047;-74
2023/08/27 05:25:44;;;;;;;1.25;0.88;;;11.80;99.90;;;;;;5114927;28;20047;-74
2023/08/27 05:28:09;;;;;;;0.17;0.17;;;11.90;99.90;;;;;;5095561;28;20056;-74
2023/08/27 05:30:35;;;;;;;0.47;0.13;;;11.90;99.90;;;;;;5101802;28;20410;-74
2023/08/27 05:33:01;;;;;;;0.43;0.43;;;11.90;99.90;;;;;;5101491;28;20044;-74
2023/08/27 05:35:26;;;;;;;2.72;0.47;;;12.00;99.90;;;;;;5107146;28;20115;-74
2023/08/27 05:37:53;;;;;;;0.20;0.10;;;12.20;99.90;;;;;;5099346;28;20051;-74
2023/08/27 05:40:19;;;;;;;0.32;0.30;;;12.30;99.90;;;;;;5098430;28;20044;-74
2023/08/27 05:42:45;;;;;;;0.20;0.20;;;12.50;99.90;;;;;;5093156;28;20051;-74
2023/08/27 05:45:11;;;;;;;0.32;0.32;;;13.80;99.90;;;;;;5109728;28;20063;-74
2023/08/27 05:47:36;;;;;;;0.93;0.60;;;12.80;99.90;;;;;;5103435;28;20509;-74
2023/08/27 05:50:02;;;;;;;0.45;0.43;;;13.00;99.90;;;;;;5103296;28;20063;-74
2023/08/27 05:52:27;;;;;;;2.28;0.38;;;13.10;99.90;;;;;;5103221;28;20040;-74
2023/08/27 05:54:53;;;;;;;0.65;0.65;;;13.30;99.90;;;;;;5097174;28;20044;-74
2023/08/27 05:57:19;;;;;;;0.13;0.13;;;13.50;99.90;;;;;;5102892;28;20162;-75
2023/08/27 05:59:44;;;;;;;0.35;0.35;;;13.60;99.90;;;;;;5103845;28;20089;-75
2023/08/27 06:02:10;;;;;;;1.20;0.40;;;13.70;99.90;;;;;;5103339;28;20028;-74
2023/08/27 06:04:36;;;;;;;1.48;0.85;;;13.80;99.90;;;;;;5096200;28;20031;-74
2023/08/27 06:07:02;;;;;;;1.88;0.77;;;13.90;99.90;;;;;;5102962;28;20416;-74
2023/08/27 06:09:28;;;;;;;0.00;0.00;;;14.00;99.90;;;;;;5111952;28;20075;-74
2023/08/27 06:11:53;;;;;;;1.75;0.90;;;14.00;99.90;;;;;;5102895;28;20086;-75
2023/08/27 06:14:19;;;;;;;0.35;0.30;;;14.00;99.90;;;;;;5103298;28;20379;-74
2023/08/27 06:16:45;;;;;;;1.17;0.82;;;14.00;99.90;;;;;;5088465;28;20123;-75
2023/08/27 06:19:10;;;;;;;1.05;0.85;;;14.00;99.90;;;;;;5106358;28;20182;-75
2023/08/27 06:21:37;;;;;;;1.52;1.30;;;14.00;99.90;;;;;;5106021;28;20047;-74
2023/08/27 06:24:03;;;;;;;0.55;0.55;;;13.90;99.90;;;;;;5102217;28;20133;-75
2023/08/27 06:26:28;;;;;;;0.90;0.55;;;13.90;99.90;;;;;;5102602;28;20054;-75
2023/08/27 06:28:57;;;;;;;2.38;0.80;;;13.80;99.90;;;;;;5104272;28;20048;-74
2023/08/27 06:31:23;;;;;;;0.98;0.55;;;13.70;99.90;;;;;;5101297;28;20044;-75
2023/08/27 06:33:48;;;;;;;1.13;0.95;;;13.60;99.90;;;;;;5098982;28;20083;-75
2023/08/27 06:36:14;;;;;;;0.73;0.47;;;13.60;99.90;;;;;;5096795;28;20044;-75
2023/08/27 06:38:39;;;;;;;0.40;0.40;;;13.50;99.90;;;;;;5106515;28;20392;-75
2023/08/27 06:41:05;;;;;;;6.80;2.10;;;13.50;99.90;;;;;;5105031;28;20048;-75
2023/08/27 06:43:31;;;;;;;0.45;0.35;;;13.50;99.90;;;;;;5102807;28;20039;-74
2023/08/27 06:45:56;;;;;;;1.88;1.10;;;13.50;99.90;;;;;;5105844;28;20039;-75
2023/08/27 06:48:22;;;;;;;2.42;0.95;;;13.40;99.90;;;;;;5100939;28;20096;-74
2023/08/27 06:50:47;;;;;;;0.10;0.10;;;13.40;99.90;;;;;;5100635;28;20040;-75
2023/08/27 06:53:13;;;;;;;0.98;0.77;;;13.30;99.90;;;;;;5102853;28;20513;-75
2023/08/27 06:55:38;;;;;;;0.17;0.17;;;13.40;99.90;;;;;;5110935;28;20043;-74
2023/08/27 06:58:04;;;;;;;0.82;0.82;;;13.30;99.90;;;;;;5098808;28;20374;-75
2023/08/27 07:00:31;;;;;;;0.90;0.60;;;13.40;99.90;;;;;;5097134;28;20052;-75
2023/08/27 07:02:57;;;;;;;0.17;0.17;;;13.50;99.90;;;;;;5106563;28;20048;-75
2023/08/27 07:05:23;;;;;;;0.25;0.20;;;13.50;99.90;;;;;;5098360;28;20048;-75
2023/08/27 07:07:49;;;;;;;0.88;0.35;;;13.60;99.90;;;;;;5100526;28;20433;-75
2023/08/27 07:10:15;;;;;;;0.00;0.00;;;13.60;99.90;;;;;;5073756;28;20053;-75
2023/08/27 07:12:41;;;;;;;1.10;0.55;;;13.60;99.90;;;;;;5100349;28;20127;-75
2023/08/27 07:15:07;;;;;;;0.75;0.47;;;13.80;99.90;;;;;;5098442;28;20046;-74
2023/08/27 07:17:33;;;;;;;0.20;0.20;;;13.60;99.90;;;;;;5105011;28;20048;-75
2023/08/27 07:19:59;;;;;;;0.00;0.00;;;13.60;99.90;;;;;;5100165;28;20386;-75
2023/08/27 07:22:25;;;;;;;0.68;0.63;;;13.70;99.90;;;;;;5104474;28;20036;-75
2023/08/27 07:24:51;;;;;;;0.30;0.28;;;13.70;99.90;;;;;;5102667;28;20051;-75
2023/08/27 07:27:17;;;;;;;0.10;0.10;;;13.80;99.90;;;;;;5086270;28;20083;-75
2023/08/27 07:29:43;;;;;;;0.55;0.47;;;13.70;99.90;;;;;;5091083;28;20374;-75
2023/08/27 07:32:09;;;;;;;0.13;0.10;;;13.70;99.90;;;;;;5101560;28;20055;-75
2023/08/27 07:34:34;;;;;;;0.70;0.68;;;13.70;99.90;;;;;;5101111;28;20048;-75
2023/08/27 07:37:00;;;;;;;4.65;1.25;;;14.00;99.90;;;;;;5100222;28;20050;-75
2023/08/27 07:39:26;;;;;;;0.10;0.10;;;13.60;99.90;;;;;;5094820;28;20048;-75
2023/08/27 07:41:51;;;;;;;0.35;0.28;;;13.60;99.90;;;;;;5096806;28;20054;-75
2023/08/27 07:44:17;;;;;;;4.07;0.20;;;13.50;99.90;;;;;;5100354;28;20123;-75
2023/08/27 07:46:43;;;;;;;0.00;0.00;;;13.50;99.90;;;;;;5096520;28;20040;-75
2023/08/27 07:49:12;;;;;;;0.28;0.28;;;13.50;99.90;;;;;;5089206;28;20051;-75
2023/08/27 07:51:37;;;;;;;0.08;0.08;;;13.60;99.90;;;;;;5101218;28;20032;-75
2023/08/27 07:54:03;;;;;;;0.47;0.45;;;13.70;99.90;;;;;;5098411;28;20698;-75
2023/08/27 07:56:29;;;;;;;0.17;0.10;;;13.90;99.90;;;;;;5102521;28;20044;-75
2023/08/27 07:58:55;;;;;;;0.00;0.00;;;14.00;99.90;;;;;;5086116;28;20229;-75
2023/08/27 08:01:21;;;;;;;0.00;0.00;;;14.30;99.90;;;;;;5101838;28;20044;-75
2023/08/27 08:03:46;;;;;;;0.20;0.15;;;14.60;99.90;;;;;;5094485;28;20039;-75
2023/08/27 08:06:13;;;;;;;0.45;0.22;;;15.00;99.90;;;;;;5096474;28;20044;-75
2023/08/27 08:08:38;;;;;;;0.10;0.10;;;15.70;99.90;;;;;;5102785;28;20135;-75
2023/08/27 08:11:04;;;;;;;0.05;0.05;;;16.50;99.90;;;;;;5098942;28;20538;-75
2023/08/27 08:13:32;;;;;;;0.00;0.00;;;17.20;99.90;;;;;;5101218;28;20185;-75
2023/08/27 08:15:57;;;;;;;0.00;0.00;;;17.60;99.90;;;;;;5091120;28;20044;-75
2023/08/27 08:18:23;;;;;;;0.35;0.32;;;17.80;99.90;;;;;;5091318;28;20495;-75
2023/08/27 08:20:53;;;;;;;0.20;0.20;;;17.90;99.90;;;;;;5100453;28;20040;-75
2023/08/27 08:23:19;;;;;;;0.13;0.10;;;17.80;99.90;;;;;;5104511;28;20104;-75
2023/08/27 08:25:45;;;;;;;0.15;0.15;;;17.90;99.90;;;;;;5104302;28;20075;-75
2023/08/27 08:28:11;;;;;;;0.32;0.32;;;18.40;99.90;;;;;;5100855;28;20245;-75
2023/08/27 08:30:36;;;;;;;0.15;0.13;;;18.70;1.00;;;;;;5099836;28;20051;-75
2023/08/27 08:33:03;;;;;;;0.10;0.10;;;18.70;99.90;;;;;;5102625;28;20036;-75
2023/08/27 08:35:28;;;;;;;0.35;0.32;;;18.80;99.90;;;;;;5104267;28;20043;-76
2023/08/27 08:37:54;;;;;;;0.03;0.03;;;19.30;1.00;;;;;;5093372;28;20454;-75
2023/08/27 08:40:19;;;;;;;0.00;0.00;;;19.60;1.00;;;;;;5095404;28;20046;-75
2023/08/27 08:42:57;;;;;;;0.15;0.15;;;19.90;99.90;;;;;;5097627;28;20032;-75
2023/08/27 08:45:35;;;;;;;4.00;1.33;;;19.90;99.90;;;;;;5100851;28;20055;-75
2023/08/27 08:48:03;;;;;;;0.30;0.30;;;19.90;99.90;;;;;;5096497;28;20482;-75
2023/08/27 08:50:34;;;;;;;0.28;0.28;;;20.10;1.00;;;;;;5099133;28;20040;-75
2023/08/27 08:53:12;;;;;;;0.00;0.00;;;19.90;99.90;;;;;;5097712;28;20040;-75
2023/08/27 08:55:42;;;;;;;1.15;0.95;;;20.00;99.90;;;;;;5092040;28;20039;-75
2023/08/27 08:58:10;;;;;;;0.20;0.15;;;20.30;99.90;;;;;;5092957;28;20419;-75
2023/08/27 09:00:36;;;;;;;0.20;0.10;;;20.80;99.90;;;;;;5088518;28;20145;-75
2023/08/27 09:03:03;;;;;;;0.00;0.00;;;20.80;1.00;;;;;;5085262;28;20093;-76
2023/08/27 09:05:31;;;;;;;0.52;0.43;;;21.00;99.90;;;;;;5087021;28;20040;-76
2023/08/27 09:07:57;;;;;;;0.00;0.00;;;21.20;99.90;;;;;;5085098;28;20036;-76
2023/08/27 09:10:25;;;;;;;0.20;0.20;;;21.40;1.00;;;;;;5088661;28;20036;-76
2023/08/27 09:12:57;;;;;;;0.80;0.65;;;21.70;99.90;;;;;;5091214;28;20081;-76
2023/08/27 09:15:23;;;;;;;0.00;0.00;;;21.90;99.90;;;;;;5098016;28;20091;-76
2023/08/27 09:17:49;;;;;;;0.63;0.17;;;21.90;1.00;;;;;;5094685;28;20123;-76
2023/08/27 09:20:15;;;;;;;0.22;0.22;;;22.00;99.90;;;;;;5099864;28;20189;-76
2023/08/27 09:22:41;;;;;;;0.00;0.00;;;22.10;1.00;;;;;;5102987;28;20044;-75
2023/08/27 09:25:09;;;;;;;0.10;0.10;;;22.20;99.90;;;;;;5099915;28;20043;-76
2023/08/27 09:27:35;;;;;;;0.25;0.17;;;22.00;99.90;;;;;;5094379;28;20064;-76
2023/08/27 09:30:02;;;;;;;0.30;0.28;;;21.90;99.90;;;;;;5100396;28;20490;-75
2023/08/27 09:32:28;;;;;;;0.10;0.10;;;21.90;99.90;;;;;;5101709;28;20058;-75
2023/08/27 09:35:04;;;;;;;0.30;0.30;;;21.50;99.90;;;;;;5102630;28;20065;-76
2023/08/27 09:37:43;;;;;;;0.00;0.00;;;21.30;99.90;;;;;;5098934;28;20036;-75
2023/08/27 09:40:10;;;;;;;0.10;0.10;;;21.10;99.90;;;;;;5093406;28;20050;-76
2023/08/27 09:42:37;;;;;;;0.15;0.13;;;21.40;99.90;;;;;;5094876;28;20612;-75
2023/08/27 09:45:03;;;;;;;0.65;0.47;;;21.50;99.90;;;;;;5102837;28;20039;-75
2023/08/27 09:47:33;;;;;;;0.15;0.00;;;21.60;99.90;;;;;;5099250;28;20407;-76
2023/08/27 09:50:02;;;;;;;0.00;0.00;;;21.80;99.90;;;;;;5099172;28;20475;-76
2023/08/27 09:52:28;;;;;;;0.52;0.45;;;22.00;99.90;;;;;;5097635;28;20422;-76
2023/08/27 09:54:53;;;;;;;0.00;0.00;;;22.00;99.90;;;;;;5093836;28;20047;-75
2023/08/27 09:57:20;;;;;;;0.38;0.20;;;22.10;1.00;;;;;;5099416;28;20411;-76
2023/08/27 09:59:46;;;;;;;0.65;0.30;;;22.10;1.00;;;;;;5099020;28;20486;-76
2023/08/27 10:02:13;;;;;;;2.17;0.28;;;22.10;99.90;;;;;;5099561;28;20035;-76
2023/08/27 10:05:09;;;;;;;0.00;0.00;;;21.90;99.90;;;;;;5102422;28;20084;-75
2023/08/27 10:07:34;;;;;;;0.00;0.00;;;21.50;99.90;;;;;;5090394;28;20091;-75
2023/08/27 10:10:02;;;;;;;0.30;0.22;;;21.30;99.90;;;;;;5087413;28;20082;-75
2023/08/27 10:12:29;;;;;;;0.25;0.20;;;21.40;99.90;;;;;;5102125;28;20067;-76
2023/08/27 10:14:55;;;;;;;0.10;0.10;;;21.60;1.00;;;;;;5090998;28;20097;-76
2023/08/27 10:17:22;;;;;;;3.45;0.38;;;21.60;99.90;;;;;;5095545;28;20052;-75
2023/08/27 10:19:48;;;;;;;0.15;0.10;;;21.40;99.90;;;;;;5108530;28;20416;-75
2023/08/27 10:22:16;;;;;;;0.22;0.22;;;21.40;99.90;;;;;;5100200;28;20064;-76
2023/08/27 10:24:42;;;;;;;0.00;0.00;;;21.30;99.90;;;;;;5100434;28;20044;-76
2023/08/27 10:27:08;;;;;;;0.00;0.00;;;21.20;1.00;;;;;;5097768;28;20140;-76
2023/08/27 10:29:34;;;;;;;0.10;0.10;;;21.10;99.90;;;;;;5095838;28;20445;-76
2023/08/27 10:32:00;;;;;;;0.15;0.13;;;21.10;99.90;;;;;;5108843;28;20082;-76
2023/08/27 10:34:28;;;;;;;0.05;0.05;;;21.30;99.90;;;;;;5096646;28;20079;-75
2023/08/27 10:36:59;;;;;;;2.03;0.52;;;21.80;99.90;;;;;;5098801;28;20122;-75
2023/08/27 10:39:29;;;;;;;0.95;0.52;;;22.30;99.90;;;;;;5075897;28;20730;-75
2023/08/27 10:41:55;;;;;;;0.00;0.00;;;22.50;96.60;;;;;;5108323;28;20051;-76
2023/08/27 10:44:21;;;;;;;0.90;0.30;;;22.80;99.90;;;;;;5103097;28;20044;-76
2023/08/27 10:47:10;;;;;;;0.00;0.00;;;23.00;99.90;;;;;;5103020;28;20054;-75
2023/08/27 10:49:37;;;;;;;0.00;0.00;;;22.90;99.90;;;;;;5092686;28;20048;-76
2023/08/27 10:52:19;;;;;;;0.05;0.05;;;22.50;1.00;;;;;;5099062;28;20054;-76
2023/08/27 10:54:46;;;;;;;0.57;0.22;;;22.20;1.00;;;;;;5071803;28;20063;-76
2023/08/27 10:57:35;;;;;;;1.90;0.75;;;22.40;1.00;;;;;;5096745;28;20038;-76
2023/08/27 11:00:10;;;;;;;0.20;0.20;;;22.80;1.00;;;;;;5101748;28;20100;-76
2023/08/27 11:02:56;;;;;;;0.57;0.35;;;23.10;1.00;;;;;;5098811;28;20043;-76
2023/08/27 11:05:29;;;;;;;0.50;0.25;;;23.20;1.00;;;;;;5098069;28;20044;-76
2023/08/27 11:07:59;;;;;;;0.10;0.00;;;22.80;1.00;;;;;;5097101;28;20050;-76
2023/08/27 11:10:34;;;;;;;2.30;0.35;;;22.40;99.90;;;;;;5101612;28;20118;-76
2023/08/27 11:13:00;;;;;;;0.00;0.00;;;22.10;99.90;;;;;;5090805;28;20453;-76
2023/08/27 11:15:32;;;;;;;0.10;0.10;;;22.00;99.90;;;;;;5098242;28;20040;-76
2023/08/27 11:17:59;;;;;;;0.00;0.00;;;21.90;99.90;;;;;;5086245;28;20118;-76
2023/08/27 11:20:27;;;;;;;0.25;0.25;;;21.70;99.90;;;;;;5106828;28;20104;-76
2023/08/27 11:22:54;;;;;;;0.10;0.10;;;21.60;99.90;;;;;;5105882;27;20405;-77
2023/08/27 11:25:20;;;;;;;0.05;0.00;;;21.00;99.90;;;;;;5104695;28;20430;-76
2023/08/27 11:27:46;;;;;;;1.80;0.75;;;20.60;1.00;;;;;;5097353;28;20052;-77
2023/08/27 11:30:12;;;;;;;0.00;0.00;;;20.30;1.00;;;;;;5108703;28;20130;-77
2023/08/27 11:32:37;;;;;;;0.20;0.20;;;20.20;1.00;;;;;;5104486;28;20541;-77
2023/08/27 11:35:06;;;;;;;0.15;0.00;;;20.10;1.00;;;;;;5106353;28;20079;-77
2023/08/27 11:37:32;;;;;;;0.08;0.05;;;19.90;1.00;;;;;;5098021;27;20048;-77
2023/08/27 11:39:58;;;;;;;0.60;0.30;;;20.10;12.00;;;;;;5102170;28;20396;-76
2023/08/27 11:42:23;;;;;;;0.73;0.63;;;20.70;50.40;;;;;;5108640;27;20050;-76
2023/08/27 11:44:50;;;;;;;0.10;0.10;;;21.50;1.00;;;;;;5104752;28;20090;-76
2023/08/27 11:47:16;;;;;;;0.00;0.00;;;22.20;1.00;;;;;;5086143;28;20059;-76
2023/08/27 11:49:41;;;;;;;0.10;0.10;;;22.70;99.90;;;;;;5107854;27;20100;-76
2023/08/27 11:52:07;;;;;;;0.00;0.00;;;22.60;99.90;;;;;;5108052;27;20036;-76
2023/08/27 11:54:34;;;;;;;0.35;0.13;;;22.20;99.90;;;;;;5099548;28;20188;-77
2023/08/27 11:57:02;;;;;;;0.13;0.13;;;21.80;99.90;;;;;;5100553;28;20062;-76
2023/08/27 11:59:28;;;;;;;0.20;0.10;;;21.50;99.90;;;;;;5104738;28;20048;-76
2023/08/27 12:01:56;;;;;;;0.00;0.00;;;21.20;99.90;;;;;;5107693;27;20043;-76
2023/08/27 12:04:25;;;;;;;0.20;0.20;;;21.10;99.90;;;;;;5107590;27;20047;-76
2023/08/27 12:06:59;;;;;;;0.43;0.32;;;20.90;99.90;;;;;;5098183;28;20051;-76
2023/08/27 12:09:27;;;;;;;0.00;0.00;;;20.90;99.90;;;;;;5102690;28;20066;-76
2023/08/27 12:11:53;;;;;;;0.15;0.15;;;20.60;1.00;;;;;;5096412;28;20486;-75
2023/08/27 12:14:26;;;;;;;0.00;0.00;;;20.70;1.00;;;;;;5104428;28;20050;-75
2023/08/27 12:16:53;;;;;;;0.13;0.13;;;20.70;1.00;;;;;;5106402;28;20047;-75
2023/08/27 12:19:20;;;;;;;1.25;0.60;;;20.60;1.00;;;;;;5099137;28;20036;-76
2023/08/27 12:21:55;;;;;;;0.20;0.10;;;20.50;1.00;;;;;;5105673;28;20063;-76
2023/08/27 12:24:34;;;;;;;0.30;0.25;;;20.40;1.00;;;;;;5107652;27;20101;-76
2023/08/27 12:27:04;;;;;;;0.90;0.55;;;20.00;1.00;;;;;;5099252;27;20120;-76
2023/08/27 12:29:32;;;;;;;0.17;0.17;;;19.70;1.00;;;;;;5103736;28;20049;-76
2023/08/27 12:32:29;;;;;;;1.02;0.50;;;19.30;61.20;;;;;;5105347;28;20432;-75
2023/08/27 12:34:54;;;;;;;0.00;0.00;;;18.80;1.00;;;;;;5104624;28;20441;-76
2023/08/27 12:37:21;;;;;;;0.00;0.00;;;18.30;1.00;;;;;;5104970;28;20103;-76
2023/08/27 12:39:47;;;;;;;0.15;0.10;;;17.70;1.00;;;;;;5095345;28;20053;-76
2023/08/27 12:42:17;;;;;;;0.00;0.00;;;17.30;1.00;;;;;;5104102;28;20455;-76
2023/08/27 12:44:45;;;;;;;0.00;0.00;;;17.20;15.20;;;;;;5104025;28;20044;-76
2023/08/27 12:47:11;;;;;;;0.10;0.05;;;17.50;99.90;;;;;;5104942;28;20122;-76